AirNav   Air Wisconsin pilot careers
 
 335 users online  

5R5 R & R Aero Airport
Warsaw, New York, USA


FAA INFORMATION EFFECTIVE 01 FEBRUARY 2018

Location

FAA Identifier: 5R5
Lat/Long: 42-43-15.0000N / 078-11-05.0000W
42-43.250000N / 078-11.083333W
42.7208333 / -78.1847222
(estimated)
Elevation: 1650 ft. / 503 m
From city: 3 miles WSW of WARSAW, NY
Time zone: UTC -5 (UTC -4 during Daylight Saving Time)
Zip code: 14569

Airport Operations

Airport use: Open to the public
Activation date: 07/2014
Control tower: no
ARTCC: CLEVELAND CENTER
FSS: NEW YORK FLIGHT SERVICE STATION
NOTAMs facility: ISP (NOTAM-D service not available)
Attendance: IREG
Wind indicator: yes
Segmented circle: no

Airport Communications

CTAF: 122.9
WX AWOS-3PT at GVQ (19 nm N): 127.525 (585-343-6369)

Nearby radio navigation aids

VOR radial/distance  VOR name  Freq  Var
GEEr260/21.0GENESEO VOR/DME108.2009W
BUFr130/23.8BUFFALO VOR/DME116.4008W
ROCr235/32.8ROCHESTER VOR/DME110.0012W
ELZr357/38.7WELLSVILLE VORTAC111.4009W

Airport Services

Parking: tiedowns

Runway Information

Runway 10/28

Dimensions: 4000 x 140 ft. / 1219 x 43 m
Surface: turf, in good condition
RUNWAY 10  RUNWAY 28
Traffic pattern: leftright
Obstructions: none28 ft. trees, 38 ft. from runway, 78 ft. left of centerline, 1:1 slope to clear
RY 28, +58 FT TREES, 197 FT FM RY END, 109 FT LEFT

Airport Ownership and Management from official FAA records

Ownership: Privately-owned
Owner: REO & RUTH ROOD
4497 LIBERTY ST.
WARSAW, NY 14569
Phone 585-786-8574
Manager: RE0 ROOD
4497 LIBERTY ST.
WARSAW, NY 14569
Phone 585-786-8574

Airport Operational Statistics

Aircraft based on the field: 6
Single engine airplanes: 5
Multi engine airplanes: 1
    
Aircraft operations: avg 62/month *
67% local general aviation
27% transient general aviation
7% military
* for 12-month period ending 31 August 2017

Additional Remarks

CLSD DURING SNOW MONTHS (NOV-APR).

Instrument Procedures

There are no published instrument procedures at 5R5.

Some nearby airports with instrument procedures:

KGVQ - Genesee County Airport (19 nm N)
5G0 - Le Roy Airport (19 nm NE)
9G3 - Akron Airport (22 nm NW)
KDSV - Dansville Municipal Airport (23 nm SE)
9G0 - Buffalo Airfield (25 nm W)
 
Loc | Ops | Rwys | IFR | FBO | Links
Com | Nav | Svcs | Stats | Notes

AirNav Hotels Sweepstakes
 
Aerial photo
No photo
 
Airport distance calculator
Flying to R & R Aero Airport? Find the distance to fly.

From to 5R5

Sunrise and sunset
Times for 21-Feb-2018
 Local
(UTC-5)
 Zulu
(UTC)
Morning civil twilight06:3311:33
Sunrise07:0212:02
Sunset17:5122:51
Evening civil twilight18:1923:19

Current date and time
Zulu (UTC)  21-Feb-2018 09:53:44
Local (UTC-5)  21-Feb-2018 04:53:44
 
METAR
KDSV 
23nm SE 
210854Z AUTO 15007KT 10SM FEW075 12/09 A3011 RMK AO2 SLP202 T01170089 58008
KBUF 
27nm NW 
210854Z 24012KT 10SM FEW055 BKN090 15/09 A3005 RMK AO2 SLP177 T01500094 53001
KOLE 
30nm S 
210935Z AUTO 23006G15KT 10SM BKN065 15/10 A3015 RMK AO2
KROC 
32nm NE 
210854Z 22007KT 10SM FEW060 SCT075 17/11 A3007 RMK AO2 SLP183 T01670111 56004
TAF
KBUF 
27nm NW 
210536Z 2106/2206 21018KT P6SM SCT250 WS020/23050KT FM211100 22015G24KT P6SM BKN045 FM211300 23014G23KT 6SM -RA OVC035 FM211500 27012G19KT 6SM -RA OVC015 FM211800 29012G18KT P6SM OVC015 FM212100 29012G19KT P6SM BKN050 FM220000 31007KT P6SM BKN200
KROC 
32nm NE 
210536Z 2106/2206 22010KT P6SM SCT250 WS020/23045KT FM211200 21012KT P6SM BKN060 FM211500 26011KT 6SM -RA OVC015 FM211800 30014G22KT P6SM OVC015 FM211900 30014G22KT P6SM OVC045 FM220000 30011KT P6SM BKN140
NOTAMs
Click for the latest NOTAMs
NOTAMs are issued by the DoD/FAA and will open in a separate window not controlled by AirNav.

 

 
 

Would you like to see your business listed on this page?

 If your business provides an interesting product or service to pilots, flight crews, aircraft, or users of the R & R Aero Airport, you should consider listing it here.  To start the listing process, click on the button below
 
Add a business
 

Other Pages about R & R Aero Airport

Update a link
 
Copyright © AirNav, LLC. All rights reserved. Privacy Policy  Contact